Time;durP1;ratioP1;P1;durP2;ratioP2;P2;SDS_P1;SDS_P2;PMS_P1;PMS_P2;Temp;Humidity;BMP_temperature;BMP_pressure;BME280_temperature;BME280_humidity;BME280_pressure;Samples;Min_cycle;Max_cycle;Signal;HPM_P1;HPM_P2
2023/11/19 00:02:21;;;;;;;9.45;8.48;;;7.20;99.90;;;;;;5055379;28;20203;-63
2023/11/19 00:04:48;;;;;;;10.63;8.00;;;7.20;99.90;;;;;;5055067;28;20206;-63
2023/11/19 00:07:15;;;;;;;9.52;7.38;;;7.20;99.90;;;;;;5058141;28;20223;-64
2023/11/19 00:09:43;;;;;;;8.65;7.57;;;7.20;99.90;;;;;;5054640;28;20194;-63
2023/11/19 00:12:10;;;;;;;9.85;8.60;;;7.20;99.90;;;;;;5054117;28;20289;-63
2023/11/19 00:14:37;;;;;;;10.52;9.50;;;7.20;99.90;;;;;;5054324;28;20206;-63
2023/11/19 00:17:05;;;;;;;12.13;8.35;;;7.20;99.90;;;;;;5057002;28;20230;-63
2023/11/19 00:19:32;;;;;;;8.07;6.90;;;7.20;99.90;;;;;;5055679;28;20388;-63
2023/11/19 00:22:02;;;;;;;7.97;7.38;;;7.20;99.90;;;;;;5054930;28;20216;-63
2023/11/19 00:24:29;;;;;;;8.55;7.63;;;7.30;99.90;;;;;;5053821;28;20761;-64
2023/11/19 00:26:56;;;;;;;7.90;7.10;;;7.30;99.90;;;;;;5055595;28;20230;-63
2023/11/19 00:29:23;;;;;;;7.65;6.95;;;7.30;99.90;;;;;;5057176;28;20726;-64
2023/11/19 00:31:50;;;;;;;9.50;8.15;;;7.30;99.90;;;;;;5054739;28;20210;-63
2023/11/19 00:34:21;;;;;;;7.63;7.03;;;7.30;99.90;;;;;;5055066;28;20206;-63
2023/11/19 00:36:48;;;;;;;11.15;8.85;;;7.30;99.90;;;;;;5054824;28;20317;-64
2023/11/19 00:39:15;;;;;;;9.32;7.82;;;7.30;99.90;;;;;;5058173;28;20308;-63
2023/11/19 00:41:42;;;;;;;9.15;7.70;;;7.30;99.90;;;;;;5046623;28;20583;-64
2023/11/19 00:44:09;;;;;;;9.07;8.15;;;7.30;99.90;;;;;;5055156;28;20280;-63
2023/11/19 00:46:36;;;;;;;9.02;8.23;;;7.30;99.90;;;;;;5054162;28;20261;-63
2023/11/19 00:49:03;;;;;;;10.93;7.20;;;7.30;99.90;;;;;;5056188;28;20217;-63
2023/11/19 00:51:32;;;;;;;9.27;7.82;;;7.30;99.90;;;;;;5055895;28;20664;-63
2023/11/19 00:54:00;;;;;;;9.75;7.53;;;7.40;99.90;;;;;;5046481;28;20211;-63
2023/11/19 00:56:28;;;;;;;8.38;7.63;;;7.40;99.90;;;;;;5051947;28;20313;-63
2023/11/19 00:58:55;;;;;;;8.00;7.25;;;7.40;99.90;;;;;;5053273;28;20636;-63
2023/11/19 01:01:22;;;;;;;10.10;8.45;;;7.40;99.90;;;;;;5054333;28;20206;-64
2023/11/19 01:03:49;;;;;;;8.80;7.28;;;7.40;99.90;;;;;;5054077;28;20213;-63
2023/11/19 01:06:27;;;;;;;7.43;6.72;;;7.40;99.90;;;;;;5054055;28;20225;-63
2023/11/19 01:08:56;;;;;;;13.88;7.22;;;7.40;99.90;;;;;;5055447;28;20687;-63
2023/11/19 01:11:23;;;;;;;10.63;7.80;;;7.40;99.90;;;;;;5056987;28;20204;-63
2023/11/19 01:13:51;;;;;;;8.38;6.95;;;7.50;99.90;;;;;;5054682;28;20289;-63
2023/11/19 01:16:18;;;;;;;11.40;8.98;;;7.50;99.90;;;;;;5053696;28;20230;-64
2023/11/19 01:18:45;;;;;;;7.75;7.10;;;7.50;99.90;;;;;;5054503;28;20218;-63
2023/11/19 01:21:14;;;;;;;7.68;6.95;;;7.50;99.90;;;;;;5049853;28;20298;-63
2023/11/19 01:23:42;;;;;;;10.30;6.93;;;7.50;99.90;;;;;;5046406;28;20217;-63
2023/11/19 01:26:12;;;;;;;8.02;7.13;;;7.50;99.90;;;;;;5053923;28;20241;-63
2023/11/19 01:28:42;;;;;;;8.43;7.50;;;7.50;99.90;;;;;;5054349;28;20199;-63
2023/11/19 01:31:09;;;;;;;8.93;7.93;;;7.50;99.90;;;;;;5057626;28;20641;-63
2023/11/19 01:33:37;;;;;;;8.98;8.02;;;7.50;99.90;;;;;;5054840;28;20217;-63
2023/11/19 01:36:04;;;;;;;10.15;6.85;;;7.50;99.90;;;;;;5053895;28;20726;-64
2023/11/19 01:38:31;;;;;;;7.43;6.63;;;7.50;99.90;;;;;;5054330;28;20677;-63
2023/11/19 01:40:58;;;;;;;8.73;7.72;;;7.60;99.90;;;;;;5056241;28;20218;-63
2023/11/19 01:43:37;;;;;;;8.85;7.95;;;7.60;99.90;;;;;;5056356;28;20293;-63
2023/11/19 01:46:06;;;;;;;11.23;7.72;;;7.60;99.90;;;;;;5054025;28;20226;-63
2023/11/19 01:48:35;;;;;;;19.60;7.72;;;7.60;99.90;;;;;;5054271;28;20309;-63
2023/11/19 01:51:04;;;;;;;7.82;7.00;;;7.60;99.90;;;;;;5056445;28;20298;-63
2023/11/19 01:53:31;;;;;;;11.35;7.18;;;7.60;99.90;;;;;;5056108;28;20632;-63
2023/11/19 01:55:59;;;;;;;8.45;7.50;;;7.60;99.90;;;;;;5054366;28;20226;-63
2023/11/19 01:58:26;;;;;;;10.10;8.45;;;7.60;99.90;;;;;;5054209;28;20603;-63
2023/11/19 02:00:54;;;;;;;19.60;8.43;;;7.60;99.90;;;;;;5058524;28;20294;-64
2023/11/19 02:03:22;;;;;;;8.40;7.10;;;7.60;99.90;;;;;;5060627;28;20216;-63
2023/11/19 02:05:50;;;;;;;10.35;8.23;;;7.60;99.90;;;;;;5057896;28;20203;-63
2023/11/19 02:08:17;;;;;;;9.55;8.27;;;7.60;99.90;;;;;;5057633;28;20561;-64
2023/11/19 02:10:44;;;;;;;8.38;7.55;;;7.60;99.90;;;;;;5057223;28;20198;-63
2023/11/19 02:13:13;;;;;;;8.45;7.28;;;7.70;99.90;;;;;;5056677;28;20206;-63
2023/11/19 02:15:40;;;;;;;8.88;7.97;;;7.70;99.90;;;;;;5057693;28;20213;-63
2023/11/19 02:18:22;;;;;;;8.82;7.20;;;7.70;99.90;;;;;;5057597;28;20293;-64
2023/11/19 02:20:49;;;;;;;8.23;7.35;;;7.70;99.90;;;;;;5057721;28;20289;-63
2023/11/19 02:23:17;;;;;;;8.68;6.53;;;7.70;99.90;;;;;;5060849;28;20238;-63
2023/11/19 02:25:49;;;;;;;8.30;7.60;;;7.70;99.90;;;;;;5049063;28;20229;-64
2023/11/19 02:28:18;;;;;;;8.90;6.50;;;7.70;99.90;;;;;;5054313;28;20268;-64
2023/11/19 02:30:45;;;;;;;8.00;6.80;;;7.70;99.90;;;;;;5053645;28;20294;-64
2023/11/19 02:33:12;;;;;;;10.30;9.30;;;7.70;99.90;;;;;;5051997;28;20292;-63
2023/11/19 02:35:40;;;;;;;8.75;6.80;;;7.70;99.90;;;;;;5056386;28;20665;-63
2023/11/19 02:38:08;;;;;;;9.57;6.57;;;7.70;99.90;;;;;;5052650;28;20285;-63
2023/11/19 02:40:35;;;;;;;7.00;5.85;;;7.70;99.90;;;;;;5057202;28;20226;-63
2023/11/19 02:43:02;;;;;;;6.97;6.28;;;7.70;99.90;;;;;;5059616;28;20211;-63
2023/11/19 02:45:31;;;;;;;6.90;5.35;;;7.70;99.90;;;;;;5058819;28;20206;-63
2023/11/19 02:47:58;;;;;;;4.45;4.05;;;7.70;99.90;;;;;;5057068;28;20863;-63
2023/11/19 02:50:26;;;;;;;4.53;4.15;;;7.70;99.90;;;;;;5057103;28;20643;-63
2023/11/19 02:52:56;;;;;;;7.63;5.15;;;7.80;99.90;;;;;;5056911;28;20743;-63
2023/11/19 02:55:23;;;;;;;5.50;5.05;;;7.80;99.90;;;;;;5053550;28;20203;-63
2023/11/19 02:57:51;;;;;;;4.35;3.97;;;7.80;99.90;;;;;;5053328;28;20261;-63
2023/11/19 03:00:23;;;;;;;4.00;3.20;;;7.80;99.90;;;;;;5053620;28;20234;-63
2023/11/19 03:02:59;;;;;;;4.00;3.67;;;7.80;99.90;;;;;;5053492;28;20636;-63
2023/11/19 03:05:29;;;;;;;5.18;4.68;;;7.80;99.90;;;;;;5053282;28;20231;-63
2023/11/19 03:07:56;;;;;;;4.80;4.40;;;7.90;99.90;;;;;;5053246;28;20230;-63
2023/11/19 03:10:23;;;;;;;6.80;5.45;;;7.90;99.90;;;;;;5052846;28;20207;-63
2023/11/19 03:12:50;;;;;;;5.68;5.07;;;7.90;99.90;;;;;;5053059;28;20216;-63
2023/11/19 03:15:18;;;;;;;6.50;5.90;;;8.00;99.90;;;;;;5053464;28;20643;-63
2023/11/19 03:17:45;;;;;;;5.78;4.80;;;8.00;99.90;;;;;;5052983;28;20238;-63
2023/11/19 03:20:15;;;;;;;5.60;5.13;;;8.00;99.90;;;;;;5053226;28;20268;-63
2023/11/19 03:22:42;;;;;;;3.55;2.83;;;8.00;99.90;;;;;;5083799;22;20275;-62
2023/11/19 03:25:09;;;;;;;3.10;2.90;;;8.00;99.90;;;;;;5072550;28;20210;-62
2023/11/19 03:27:36;;;;;;;2.30;2.15;;;8.00;99.90;;;;;;5072152;28;20217;-62
2023/11/19 03:30:04;;;;;;;1.95;1.83;;;8.00;99.90;;;;;;5072466;28;20206;-63
2023/11/19 03:32:32;;;;;;;1.70;1.60;;;8.10;99.90;;;;;;5072545;28;20226;-62
2023/11/19 03:34:59;;;;;;;1.30;1.20;;;8.10;99.90;;;;;;5072499;28;20220;-62
2023/11/19 03:37:27;;;;;;;1.70;1.60;;;8.10;99.90;;;;;;5072446;28;20676;-62
2023/11/19 03:39:55;;;;;;;1.70;1.60;;;8.10;99.90;;;;;;5072416;28;20279;-62
2023/11/19 03:42:22;;;;;;;1.75;1.65;;;8.20;99.90;;;;;;5072198;28;20238;-62
2023/11/19 03:44:50;;;;;;;1.77;1.67;;;8.20;99.90;;;;;;5072023;28;20198;-63
2023/11/19 03:47:17;;;;;;;1.98;1.60;;;8.30;99.90;;;;;;5072100;28;20206;-62
2023/11/19 03:49:48;;;;;;;2.00;1.50;;;8.30;99.90;;;;;;5072324;28;20205;-62
2023/11/19 03:52:15;;;;;;;0.93;0.93;;;8.30;99.90;;;;;;5072050;28;20223;-62
2023/11/19 03:54:43;;;;;;;1.80;1.65;;;8.40;99.90;;;;;;5072317;28;20244;-63
2023/11/19 03:57:11;;;;;;;2.65;2.45;;;8.40;99.90;;;;;;5071705;28;20586;-62
2023/11/19 03:59:38;;;;;;;1.70;1.60;;;8.40;99.90;;;;;;5072263;28;20366;-63
2023/11/19 04:02:06;;;;;;;1.98;1.80;;;8.40;99.90;;;;;;5071828;28;20232;-62
2023/11/19 04:04:33;;;;;;;2.25;1.80;;;8.40;99.90;;;;;;5072163;28;20202;-62
2023/11/19 04:07:02;;;;;;;2.42;1.83;;;8.40;99.90;;;;;;5071904;28;20233;-63
2023/11/19 04:09:29;;;;;;;1.75;1.65;;;8.40;99.90;;;;;;5071987;28;20209;-61
2023/11/19 04:11:58;;;;;;;1.50;1.40;;;8.50;99.90;;;;;;5071756;28;20724;-63
2023/11/19 04:14:25;;;;;;;1.83;1.60;;;8.40;99.90;;;;;;5071855;28;20563;-63
2023/11/19 04:16:52;;;;;;;3.33;1.55;;;8.50;99.90;;;;;;5071406;28;20280;-63
2023/11/19 04:19:19;;;;;;;1.60;1.50;;;8.50;99.90;;;;;;5070779;28;20799;-63
2023/11/19 04:21:46;;;;;;;2.72;1.65;;;8.50;99.90;;;;;;5070930;28;20292;-62
2023/11/19 04:24:14;;;;;;;2.15;1.67;;;8.50;99.90;;;;;;5071811;28;20228;-62
2023/11/19 04:26:42;;;;;;;1.75;1.65;;;8.50;99.90;;;;;;5071207;28;20214;-63
2023/11/19 04:29:12;;;;;;;1.65;1.20;;;8.50;99.90;;;;;;5071565;28;20205;-63
2023/11/19 04:31:39;;;;;;;1.77;1.67;;;8.50;99.90;;;;;;5071479;28;20212;-63
2023/11/19 04:34:06;;;;;;;1.73;1.30;;;8.50;99.90;;;;;;5071429;28;20205;-62
2023/11/19 04:36:33;;;;;;;2.65;1.00;;;8.50;99.90;;;;;;5071120;28;20632;-63
2023/11/19 04:39:00;;;;;;;1.67;1.58;;;8.50;99.90;;;;;;5071378;28;20302;-62
2023/11/19 04:41:28;;;;;;;1.27;1.20;;;8.60;99.90;;;;;;5071476;28;20208;-63
2023/11/19 04:43:55;;;;;;;0.90;0.90;;;8.60;99.90;;;;;;5071162;28;20724;-62
2023/11/19 04:46:24;;;;;;;1.60;1.13;;;8.60;99.90;;;;;;5070940;28;20301;-62
2023/11/19 04:48:51;;;;;;;2.17;1.50;;;8.70;99.90;;;;;;5071141;28;20201;-63
2023/11/19 04:51:18;;;;;;;3.90;2.13;;;8.70;99.90;;;;;;5071388;28;20304;-62
2023/11/19 04:53:45;;;;;;;2.10;1.08;;;8.70;99.90;;;;;;5071300;28;20243;-63
2023/11/19 04:56:13;;;;;;;1.30;1.15;;;8.80;99.90;;;;;;5070793;28;20296;-63
2023/11/19 04:58:40;;;;;;;1.30;1.30;;;8.80;99.90;;;;;;5071160;28;20205;-63
2023/11/19 05:01:07;;;;;;;1.45;1.23;;;8.90;99.90;;;;;;5070937;28;20321;-63
2023/11/19 05:03:36;;;;;;;1.13;1.13;;;8.90;99.90;;;;;;5070894;28;20309;-63
2023/11/19 05:06:03;;;;;;;1.75;1.33;;;9.00;99.90;;;;;;5070743;28;20210;-62
2023/11/19 05:08:29;;;;;;;1.05;1.05;;;9.00;99.90;;;;;;5071124;28;20304;-63
2023/11/19 05:10:57;;;;;;;1.63;1.30;;;9.00;99.90;;;;;;5071010;28;20705;-63
2023/11/19 05:13:24;;;;;;;1.67;1.30;;;9.00;99.90;;;;;;5070903;28;20233;-62
2023/11/19 05:15:51;;;;;;;3.70;1.40;;;9.00;99.90;;;;;;5070655;28;20198;-62
2023/11/19 05:18:18;;;;;;;1.53;1.50;;;9.00;99.90;;;;;;5071056;28;20208;-63
2023/11/19 05:20:46;;;;;;;1.53;1.07;;;9.00;99.90;;;;;;5070966;28;20898;-63
2023/11/19 05:23:13;;;;;;;1.65;1.20;;;9.00;99.90;;;;;;5070895;28;20555;-63
2023/11/19 05:25:40;;;;;;;1.33;1.23;;;9.00;99.90;;;;;;5070876;28;20213;-62
2023/11/19 05:28:07;;;;;;;1.52;1.15;;;9.10;99.90;;;;;;5070661;28;20206;-62
2023/11/19 05:30:33;;;;;;;1.40;1.30;;;9.10;99.90;;;;;;5070747;28;20201;-63
2023/11/19 05:33:01;;;;;;;4.07;1.67;;;9.20;99.90;;;;;;5070913;28;20783;-63
2023/11/19 05:35:28;;;;;;;1.43;1.20;;;9.20;99.90;;;;;;5073920;28;20505;-62
2023/11/19 05:37:56;;;;;;;1.67;1.58;;;9.30;99.90;;;;;;5074605;28;20555;-62
2023/11/19 05:40:23;;;;;;;2.13;1.30;;;9.30;99.90;;;;;;5074616;28;20232;-62
2023/11/19 05:42:49;;;;;;;1.20;1.20;;;9.30;99.90;;;;;;5074673;28;20468;-62
2023/11/19 05:45:16;;;;;;;7.50;1.30;;;9.40;99.90;;;;;;5074425;28;20450;-63
2023/11/19 05:47:43;;;;;;;1.27;1.20;;;9.40;99.90;;;;;;5074547;28;20205;-62
2023/11/19 05:50:11;;;;;;;1.40;1.30;;;9.40;99.90;;;;;;5074481;28;20694;-63
2023/11/19 05:52:38;;;;;;;1.90;1.30;;;9.40;99.90;;;;;;5074453;28;20525;-63
2023/11/19 05:55:09;;;;;;;1.20;1.10;;;9.50;99.90;;;;;;5074492;28;20443;-63
2023/11/19 05:57:36;;;;;;;1.50;1.47;;;9.60;99.90;;;;;;5073955;28;20448;-63
2023/11/19 06:00:06;;;;;;;1.95;1.85;;;9.60;99.90;;;;;;5074170;28;20578;-62
2023/11/19 06:02:33;;;;;;;1.17;1.17;;;9.60;99.90;;;;;;5074336;28;20225;-63
2023/11/19 06:05:00;;;;;;;2.05;1.20;;;9.60;99.90;;;;;;5074107;28;20482;-63
2023/11/19 06:07:27;;;;;;;1.33;1.23;;;9.60;99.90;;;;;;5073979;28;20296;-62
2023/11/19 06:09:54;;;;;;;1.40;1.30;;;9.70;99.90;;;;;;5074052;28;20615;-63
2023/11/19 06:12:22;;;;;;;1.07;1.07;;;9.60;99.90;;;;;;5073923;28;20468;-63
2023/11/19 06:14:49;;;;;;;1.75;1.30;;;9.70;99.90;;;;;;5074061;28;20925;-63
2023/11/19 06:17:16;;;;;;;0.97;0.97;;;9.70;99.90;;;;;;5073663;28;20206;-63
2023/11/19 06:19:43;;;;;;;1.20;1.15;;;9.70;99.90;;;;;;5074033;28;20539;-63
2023/11/19 06:22:09;;;;;;;1.37;1.27;;;9.80;99.90;;;;;;5073770;28;20727;-62
2023/11/19 06:24:36;;;;;;;1.90;1.80;;;9.80;99.90;;;;;;5073923;28;20456;-62
2023/11/19 06:27:04;;;;;;;2.37;2.17;;;9.80;99.90;;;;;;5073553;28;20213;-63
2023/11/19 06:29:32;;;;;;;1.60;1.43;;;9.90;99.90;;;;;;5073664;28;20456;-63
2023/11/19 06:31:59;;;;;;;1.60;1.50;;;9.90;99.90;;;;;;5073757;28;20466;-63
2023/11/19 06:34:26;;;;;;;2.00;1.70;;;9.90;99.90;;;;;;5073736;28;20229;-62
2023/11/19 06:36:52;;;;;;;1.30;1.20;;;9.90;99.90;;;;;;5073364;28;20447;-63
2023/11/19 06:39:20;;;;;;;1.70;1.60;;;9.90;99.90;;;;;;5073589;28;20883;-63
2023/11/19 06:41:47;;;;;;;1.37;1.37;;;10.00;99.90;;;;;;5073279;28;20515;-62
2023/11/19 06:44:14;;;;;;;4.47;1.47;;;10.00;99.90;;;;;;5073536;28;20890;-62
2023/11/19 06:46:42;;;;;;;2.40;2.30;;;10.00;99.90;;;;;;5071761;28;20440;-63
2023/11/19 06:49:09;;;;;;;2.87;2.03;;;10.00;99.90;;;;;;5073471;28;20448;-63
2023/11/19 06:51:36;;;;;;;3.00;2.63;;;10.10;99.90;;;;;;5073434;28;20443;-63
2023/11/19 06:54:02;;;;;;;2.70;2.50;;;10.10;99.90;;;;;;5073200;28;20539;-63
2023/11/19 06:56:29;;;;;;;1.85;1.75;;;10.10;99.90;;;;;;5073153;28;20841;-63
2023/11/19 06:58:56;;;;;;;2.73;1.83;;;10.10;99.90;;;;;;5073311;28;20209;-62
2023/11/19 07:01:23;;;;;;;1.37;1.27;;;10.10;99.90;;;;;;5073193;28;20506;-63
2023/11/19 07:03:51;;;;;;;1.30;1.30;;;10.10;99.90;;;;;;5073082;28;20893;-63
2023/11/19 07:06:18;;;;;;;1.53;1.40;;;10.00;99.90;;;;;;5072774;28;20546;-63
2023/11/19 07:08:45;;;;;;;1.80;1.50;;;10.10;99.90;;;;;;5072983;28;20452;-62
2023/11/19 07:11:13;;;;;;;2.27;1.50;;;10.10;99.90;;;;;;5073108;28;20436;-62
2023/11/19 07:13:41;;;;;;;3.67;1.33;;;10.00;99.90;;;;;;5073008;28;20877;-62
2023/11/19 07:16:10;;;;;;;1.97;1.73;;;10.10;99.90;;;;;;5072635;28;20455;-62
2023/11/19 07:18:37;;;;;;;1.30;1.20;;;10.10;99.90;;;;;;5072981;28;20450;-63
2023/11/19 07:21:10;;;;;;;2.80;1.63;;;10.10;99.90;;;;;;5072687;28;20486;-62
2023/11/19 07:23:37;;;;;;;2.03;1.93;;;10.10;99.90;;;;;;5072672;28;20509;-62
2023/11/19 07:26:08;;;;;;;3.00;2.00;;;10.10;99.90;;;;;;5072474;28;20989;-63
2023/11/19 07:28:34;;;;;;;1.63;1.50;;;10.10;99.90;;;;;;5072781;28;20503;-62
2023/11/19 07:31:01;;;;;;;2.33;2.13;;;10.10;99.90;;;;;;5072643;28;20292;-63
2023/11/19 07:33:29;;;;;;;2.13;2.03;;;10.20;99.90;;;;;;5072434;28;20873;-63
2023/11/19 07:35:56;;;;;;;4.13;2.53;;;10.20;99.90;;;;;;5072662;28;20897;-62
2023/11/19 07:38:24;;;;;;;2.60;2.40;;;10.20;99.90;;;;;;5072402;28;20450;-62
2023/11/19 07:40:51;;;;;;;2.33;2.07;;;10.30;99.90;;;;;;5072449;28;20567;-63
2023/11/19 07:43:18;;;;;;;4.53;3.73;;;10.30;99.90;;;;;;5072379;28;20830;-63
2023/11/19 07:45:44;;;;;;;2.53;2.33;;;10.30;99.90;;;;;;5072262;28;20444;-63
2023/11/19 07:48:12;;;;;;;4.50;3.10;;;10.30;99.90;;;;;;5071896;28;20448;-63
2023/11/19 07:50:40;;;;;;;2.87;2.53;;;10.30;99.90;;;;;;5072359;28;20842;-62
2023/11/19 07:53:07;;;;;;;4.23;3.90;;;10.40;99.90;;;;;;5072030;28;20468;-62
2023/11/19 07:55:35;;;;;;;3.07;2.77;;;10.50;99.90;;;;;;5072062;28;20451;-63
2023/11/19 07:58:02;;;;;;;3.87;3.57;;;10.50;99.90;;;;;;5071473;28;21017;-62
2023/11/19 08:00:29;;;;;;;3.43;3.13;;;10.50;99.90;;;;;;5071789;28;20486;-61
2023/11/19 08:02:56;;;;;;;3.53;3.23;;;10.50;99.90;;;;;;5071778;28;20466;-62
2023/11/19 08:05:24;;;;;;;2.37;2.27;;;10.60;99.90;;;;;;5071967;28;20455;-63
2023/11/19 08:07:51;;;;;;;3.70;3.30;;;10.60;99.90;;;;;;5071759;28;20443;-63
2023/11/19 08:10:18;;;;;;;2.60;1.60;;;10.60;99.90;;;;;;5071621;28;20538;-63
2023/11/19 08:12:46;;;;;;;2.50;2.30;;;10.60;99.90;;;;;;5071113;28;20555;-62
2023/11/19 08:15:13;;;;;;;2.97;2.57;;;10.70;99.90;;;;;;5071436;28;20530;-62
2023/11/19 08:17:40;;;;;;;1.80;1.70;;;10.80;99.90;;;;;;5071394;28;20539;-62
2023/11/19 08:20:10;;;;;;;2.63;2.20;;;10.80;99.90;;;;;;5071652;28;20478;-63
2023/11/19 08:22:37;;;;;;;3.07;2.30;;;10.80;99.90;;;;;;5071495;28;20854;-63
2023/11/19 08:25:04;;;;;;;1.80;1.70;;;10.90;99.90;;;;;;5071633;28;20444;-62
2023/11/19 08:27:31;;;;;;;1.73;1.63;;;10.90;99.90;;;;;;5071301;28;20535;-62
2023/11/19 08:29:59;;;;;;;2.07;1.90;;;10.90;99.90;;;;;;5071383;28;20927;-62
2023/11/19 08:32:27;;;;;;;2.37;2.17;;;10.90;99.90;;;;;;5071565;28;20459;-62
2023/11/19 08:34:54;;;;;;;1.60;1.50;;;10.90;99.90;;;;;;5070406;28;20447;-61
2023/11/19 08:37:22;;;;;;;1.37;1.33;;;11.00;99.90;;;;;;5070899;28;20456;-62
2023/11/19 08:39:49;;;;;;;1.10;1.10;;;11.00;99.90;;;;;;5063223;28;20807;-62
2023/11/19 08:42:16;;;;;;;1.50;1.40;;;11.10;99.90;;;;;;5070976;28;20480;-63
2023/11/19 08:44:44;;;;;;;1.40;1.30;;;11.10;99.90;;;;;;5071317;28;20440;-62
2023/11/19 08:47:12;;;;;;;2.20;1.53;;;11.20;99.90;;;;;;5070912;28;20452;-62
2023/11/19 08:49:39;;;;;;;1.90;1.80;;;11.20;99.90;;;;;;5071104;28;20451;-62
2023/11/19 08:52:07;;;;;;;3.30;1.73;;;11.20;99.90;;;;;;5071030;28;20464;-62
2023/11/19 08:54:34;;;;;;;3.13;2.60;;;11.20;99.90;;;;;;5071109;28;20455;-62
2023/11/19 08:57:02;;;;;;;1.80;1.70;;;11.30;99.90;;;;;;5070813;28;20675;-62
2023/11/19 08:59:29;;;;;;;2.60;2.40;;;11.40;99.90;;;;;;5071284;28;20827;-62
2023/11/19 09:01:57;;;;;;;2.17;2.07;;;11.50;99.90;;;;;;5070978;28;20943;-61
2023/11/19 09:04:25;;;;;;;2.67;2.43;;;11.60;99.90;;;;;;5071059;28;20881;-62
2023/11/19 09:06:51;;;;;;;3.67;3.33;;;11.70;99.90;;;;;;5070671;28;20964;-62
2023/11/19 09:09:18;;;;;;;3.27;2.97;;;11.80;99.90;;;;;;5070081;28;20444;-62
2023/11/19 09:11:45;;;;;;;3.30;2.70;;;11.80;99.90;;;;;;5070806;28;20450;-61
2023/11/19 09:14:12;;;;;;;3.93;3.03;;;11.90;99.90;;;;;;5070878;28;20543;-62
2023/11/19 09:16:39;;;;;;;3.33;3.13;;;11.90;99.90;;;;;;5070779;28;20578;-61
2023/11/19 09:19:06;;;;;;;8.07;4.63;;;11.90;99.90;;;;;;5068692;28;20454;-62
2023/11/19 09:21:37;;;;;;;3.23;3.03;;;12.00;99.90;;;;;;5070466;28;20484;-63
2023/11/19 09:24:05;;;;;;;4.33;4.03;;;12.00;99.90;;;;;;5070337;28;20440;-62
2023/11/19 09:26:31;;;;;;;3.13;2.73;;;12.00;99.90;;;;;;5069859;28;21184;-62
2023/11/19 09:28:58;;;;;;;3.60;3.03;;;11.90;99.90;;;;;;5070324;28;20531;-62
2023/11/19 09:31:25;;;;;;;3.90;3.60;;;11.90;99.90;;;;;;5070249;28;20443;-62
2023/11/19 09:33:52;;;;;;;4.10;3.70;;;12.00;99.90;;;;;;5069933;28;20459;-62
2023/11/19 09:36:19;;;;;;;4.13;3.33;;;12.00;99.90;;;;;;5069806;28;20531;-62
2023/11/19 09:38:47;;;;;;;4.30;4.00;;;12.00;99.90;;;;;;5069075;28;20447;-62
2023/11/19 09:41:14;;;;;;;5.07;4.20;;;12.00;99.90;;;;;;5069740;28;20518;-62
2023/11/19 09:43:42;;;;;;;3.67;3.37;;;12.10;99.90;;;;;;5069249;28;20560;-62
2023/11/19 09:46:11;;;;;;;6.63;3.57;;;12.10;99.90;;;;;;5069823;28;20448;-62
2023/11/19 09:48:40;;;;;;;3.33;3.13;;;12.20;99.90;;;;;;5069869;28;20458;-62
2023/11/19 09:51:08;;;;;;;4.10;3.80;;;12.30;99.90;;;;;;5069702;28;20448;-62
2023/11/19 09:53:35;;;;;;;4.20;3.80;;;12.30;99.90;;;;;;5068891;28;20852;-61
2023/11/19 09:56:05;;;;;;;3.67;3.37;;;12.40;99.90;;;;;;5068144;28;20917;-62
2023/11/19 09:58:32;;;;;;;4.30;3.47;;;12.50;99.90;;;;;;5069198;28;20902;-62
2023/11/19 10:00:59;;;;;;;5.77;3.80;;;12.50;99.90;;;;;;5068871;28;20486;-62
2023/11/19 10:03:29;;;;;;;4.00;3.60;;;12.60;99.90;;;;;;5069135;28;20490;-62
2023/11/19 10:05:56;;;;;;;3.63;3.33;;;12.70;99.90;;;;;;5068475;28;21008;-62
2023/11/19 10:08:24;;;;;;;3.20;2.90;;;12.70;99.90;;;;;;5069455;28;20452;-61
2023/11/19 10:10:51;;;;;;;4.23;3.93;;;12.90;99.90;;;;;;5069010;28;20897;-62
2023/11/19 10:13:19;;;;;;;3.70;3.47;;;12.90;99.90;;;;;;5069136;28;20472;-62
2023/11/19 10:15:48;;;;;;;4.63;4.20;;;12.90;99.90;;;;;;5068636;28;20452;-62
2023/11/19 10:18:15;;;;;;;5.30;3.23;;;12.90;99.90;;;;;;5069308;28;20543;-62
2023/11/19 10:20:43;;;;;;;4.60;3.10;;;13.00;99.90;;;;;;5070419;28;20448;-62
2023/11/19 10:23:11;;;;;;;3.90;2.60;;;13.00;99.90;;;;;;5073043;28;20480;-61
2023/11/19 10:25:38;;;;;;;3.07;2.80;;;13.00;99.90;;;;;;5071832;28;20537;-62
2023/11/19 10:28:04;;;;;;;2.50;2.30;;;12.90;99.90;;;;;;5072072;28;20519;-61
2023/11/19 10:30:34;;;;;;;2.00;1.90;;;13.00;99.90;;;;;;5070987;28;21054;-61
2023/11/19 10:33:08;;;;;;;3.77;2.67;;;12.90;99.90;;;;;;5071868;28;20471;-61
2023/11/19 10:35:35;;;;;;;2.97;2.67;;;12.90;99.90;;;;;;5071752;28;20453;-62
2023/11/19 10:38:13;;;;;;;3.20;2.90;;;12.90;99.90;;;;;;5072753;28;20872;-62
2023/11/19 10:40:41;;;;;;;2.70;2.50;;;12.90;99.90;;;;;;5072033;28;20470;-63
2023/11/19 10:43:08;;;;;;;2.67;2.40;;;13.00;99.90;;;;;;5072128;28;20908;-62
2023/11/19 10:45:37;;;;;;;2.67;2.50;;;13.00;99.90;;;;;;5073086;28;20483;-61
2023/11/19 10:48:06;;;;;;;5.63;2.40;;;13.00;99.90;;;;;;5072349;28;20455;-62
2023/11/19 10:50:34;;;;;;;1.97;1.87;;;13.10;99.90;;;;;;5071987;28;20452;-62
2023/11/19 10:53:03;;;;;;;3.67;2.00;;;13.10;99.90;;;;;;5073634;28;21022;-63
2023/11/19 10:55:30;;;;;;;2.37;2.13;;;13.20;99.90;;;;;;5076429;28;20455;-61
2023/11/19 10:58:01;;;;;;;7.03;2.20;;;13.10;99.90;;;;;;5074502;28;21341;-62
2023/11/19 11:00:31;;;;;;;4.00;2.17;;;13.10;99.90;;;;;;5071696;28;20536;-62
2023/11/19 11:03:03;;;;;;;3.10;2.17;;;13.10;99.90;;;;;;5076298;28;20996;-62
2023/11/19 11:05:34;;;;;;;5.40;2.27;;;13.10;99.90;;;;;;5071194;28;20456;-62
2023/11/19 11:08:03;;;;;;;1.63;1.53;;;13.20;99.90;;;;;;5071180;28;20463;-62
2023/11/19 11:10:35;;;;;;;3.80;2.13;;;13.10;99.90;;;;;;5071261;28;20483;-62
2023/11/19 11:13:04;;;;;;;2.67;2.50;;;13.10;99.90;;;;;;5073384;28;20472;-61
2023/11/19 11:15:32;;;;;;;4.13;2.70;;;13.10;99.90;;;;;;5074833;28;21006;-62
2023/11/19 11:18:02;;;;;;;4.47;3.10;;;13.10;99.90;;;;;;5077787;28;20523;-62
2023/11/19 11:20:33;;;;;;;3.43;3.13;;;13.00;99.90;;;;;;5074658;28;20448;-62
2023/11/19 11:23:30;;;;;;;3.03;2.67;;;13.00;99.90;;;;;;5080950;28;20483;-62
2023/11/19 11:26:10;;;;;;;3.40;3.20;;;12.90;99.90;;;;;;5069664;28;20895;-62
2023/11/19 11:28:44;;;;;;;6.50;3.20;;;12.90;99.90;;;;;;5078070;28;20443;-62
2023/11/19 11:31:26;;;;;;;2.90;2.70;;;12.90;99.90;;;;;;5082347;28;20534;-61
2023/11/19 11:34:26;;;;;;;3.20;2.90;;;12.90;99.90;;;;;;5074747;28;21017;-61
2023/11/19 11:37:03;;;;;;;3.93;2.80;;;13.00;99.90;;;;;;5056203;28;20980;-62
2023/11/19 11:39:30;;;;;;;2.20;2.10;;;13.00;99.90;;;;;;5085157;28;20900;-62
2023/11/19 11:42:32;;;;;;;1.80;1.70;;;13.30;99.90;;;;;;5074545;28;20981;-62
2023/11/19 11:44:59;;;;;;;2.90;1.93;;;13.40;99.90;;;;;;5068601;28;20903;-60
2023/11/19 11:47:26;;;;;;;3.20;2.90;;;13.60;99.90;;;;;;5081542;28;20527;-60
2023/11/19 11:49:55;;;;;;;1.80;1.70;;;13.80;99.90;;;;;;5087393;28;20446;-61
2023/11/19 11:52:22;;;;;;;2.73;1.80;;;14.00;99.90;;;;;;5075378;28;20451;-62
2023/11/19 11:54:49;;;;;;;2.00;1.57;;;14.10;99.90;;;;;;5082723;28;20527;-63
2023/11/19 11:57:18;;;;;;;1.70;1.60;;;14.30;99.90;;;;;;5082632;28;20438;-63
2023/11/19 11:59:48;;;;;;;2.63;1.63;;;14.30;99.90;;;;;;5074979;28;20531;-62
2023/11/19 12:02:17;;;;;;;2.10;1.60;;;14.30;99.90;;;;;;5053988;28;20482;-63
2023/11/19 12:04:47;;;;;;;2.10;2.00;;;14.20;99.90;;;;;;5070786;28;20519;-63
2023/11/19 12:07:18;;;;;;;7.73;5.20;;;14.20;99.90;;;;;;5082551;28;20447;-62
2023/11/19 12:09:49;;;;;;;5.13;2.73;;;14.10;99.90;;;;;;5074870;28;20454;-62
2023/11/19 12:12:23;;;;;;;3.73;2.67;;;14.00;99.90;;;;;;5068350;28;20467;-63
2023/11/19 12:15:14;;;;;;;6.97;2.20;;;14.00;99.90;;;;;;5070665;28;20518;-63
2023/11/19 12:17:50;;;;;;;1.80;1.70;;;13.90;99.90;;;;;;5086408;28;20470;-62
2023/11/19 12:20:18;;;;;;;5.90;2.40;;;13.80;99.90;;;;;;5062233;28;20884;-63
2023/11/19 12:22:49;;;;;;;1.80;1.70;;;13.80;99.90;;;;;;5077609;28;20483;-63
2023/11/19 12:25:17;;;;;;;2.80;2.57;;;13.70;99.90;;;;;;5078664;28;20827;-62
2023/11/19 12:27:46;;;;;;;3.00;1.80;;;13.70;99.90;;;;;;5086244;28;20451;-62
2023/11/19 12:30:13;;;;;;;2.20;2.10;;;13.70;99.90;;;;;;5073813;28;20527;-63
2023/11/19 12:32:41;;;;;;;2.70;1.97;;;13.70;99.90;;;;;;5083733;28;20978;-63
2023/11/19 12:35:11;;;;;;;3.63;1.93;;;13.90;99.90;;;;;;5081503;28;20521;-63
2023/11/19 12:37:42;;;;;;;1.40;1.30;;;14.40;99.90;;;;;;5075301;28;20448;-62
2023/11/19 12:40:17;;;;;;;3.73;1.60;;;14.80;99.90;;;;;;5087117;28;20446;-62
2023/11/19 12:42:45;;;;;;;2.87;1.77;;;15.50;99.90;;;;;;5077761;28;21270;-62
2023/11/19 12:45:12;;;;;;;2.97;1.50;;;16.00;99.90;;;;;;5079191;28;20946;-63
2023/11/19 12:47:40;;;;;;;2.20;1.50;;;16.50;99.90;;;;;;5069507;28;20447;-63
2023/11/19 12:50:07;;;;;;;3.47;1.70;;;17.00;99.90;;;;;;5086641;28;20443;-64
2023/11/19 12:52:35;;;;;;;1.80;1.70;;;17.50;99.90;;;;;;5076566;28;20444;-64
2023/11/19 12:55:02;;;;;;;4.83;1.50;;;17.80;99.90;;;;;;5080514;28;20519;-64
2023/11/19 12:57:40;;;;;;;3.20;1.67;;;17.80;99.90;;;;;;5083845;28;20450;-63